sensor_id;sensor_type;location;lat;lon;timestamp;temperature;humidity
26745;DHT22;14342;50.960;13.880;2023-07-31T00:00:32;17.50;99.90
26745;DHT22;14342;50.960;13.880;2023-07-31T00:01:34;17.50;99.90
26745;DHT22;14342;50.960;13.880;2023-07-31T00:02:35;17.50;99.90
26745;DHT22;14342;50.960;13.880;2023-07-31T00:03:36;17.40;99.90
26745;DHT22;14342;50.960;13.880;2023-07-31T00:04:37;17.50;99.90
26745;DHT22;14342;50.960;13.880;2023-07-31T00:05:38;17.50;99.90
26745;DHT22;14342;50.960;13.880;2023-07-31T00:06:39;17.50;99.90
26745;DHT22;14342;50.960;13.880;2023-07-31T00:07:41;17.50;99.90
26745;DHT22;14342;50.960;13.880;2023-07-31T00:08:41;17.60;99.90
26745;DHT22;14342;50.960;13.880;2023-07-31T00:09:43;17.50;99.90
26745;DHT22;14342;50.960;13.880;2023-07-31T00:10:43;17.50;99.90
26745;DHT22;14342;50.960;13.880;2023-07-31T00:11:46;17.50;99.90
26745;DHT22;14342;50.960;13.880;2023-07-31T00:12:47;17.60;99.90
26745;DHT22;14342;50.960;13.880;2023-07-31T00:13:49;17.50;99.90
26745;DHT22;14342;50.960;13.880;2023-07-31T00:14:49;17.20;99.90
26745;DHT22;14342;50.960;13.880;2023-07-31T00:15:51;17.60;99.90
26745;DHT22;14342;50.960;13.880;2023-07-31T00:16:51;17.70;99.90
26745;DHT22;14342;50.960;13.880;2023-07-31T00:17:53;17.80;99.90
26745;DHT22;14342;50.960;13.880;2023-07-31T00:18:54;17.70;99.90
26745;DHT22;14342;50.960;13.880;2023-07-31T00:19:55;17.70;99.90
26745;DHT22;14342;50.960;13.880;2023-07-31T00:20:56;17.60;99.90
26745;DHT22;14342;50.960;13.880;2023-07-31T00:21:57;17.70;99.90
26745;DHT22;14342;50.960;13.880;2023-07-31T00:22:58;17.70;99.90
26745;DHT22;14342;50.960;13.880;2023-07-31T00:24:00;17.80;99.90
26745;DHT22;14342;50.960;13.880;2023-07-31T00:25:03;17.80;99.90
26745;DHT22;14342;50.960;13.880;2023-07-31T00:26:06;17.80;99.90
26745;DHT22;14342;50.960;13.880;2023-07-31T00:27:08;17.80;99.90
26745;DHT22;14342;50.960;13.880;2023-07-31T00:28:10;17.70;99.90
26745;DHT22;14342;50.960;13.880;2023-07-31T00:29:10;17.70;99.90
26745;DHT22;14342;50.960;13.880;2023-07-31T00:30:11;17.70;99.90
26745;DHT22;14342;50.960;13.880;2023-07-31T00:31:13;17.60;99.90
26745;DHT22;14342;50.960;13.880;2023-07-31T00:32:13;17.60;99.90
26745;DHT22;14342;50.960;13.880;2023-07-31T00:33:15;17.60;99.90
26745;DHT22;14342;50.960;13.880;2023-07-31T00:34:16;17.60;99.90
26745;DHT22;14342;50.960;13.880;2023-07-31T00:35:17;17.60;99.90
26745;DHT22;14342;50.960;13.880;2023-07-31T00:36:18;17.60;99.90
26745;DHT22;14342;50.960;13.880;2023-07-31T00:37:19;17.50;99.90
26745;DHT22;14342;50.960;13.880;2023-07-31T00:38:20;17.60;99.90
26745;DHT22;14342;50.960;13.880;2023-07-31T00:39:21;17.50;99.90
26745;DHT22;14342;50.960;13.880;2023-07-31T00:40:22;17.50;99.90
26745;DHT22;14342;50.960;13.880;2023-07-31T00:41:23;17.50;99.90
26745;DHT22;14342;50.960;13.880;2023-07-31T00:42:26;17.60;99.90
26745;DHT22;14342;50.960;13.880;2023-07-31T00:43:26;17.40;99.90
26745;DHT22;14342;50.960;13.880;2023-07-31T00:44:28;17.40;99.90
26745;DHT22;14342;50.960;13.880;2023-07-31T00:45:29;17.40;99.90
26745;DHT22;14342;50.960;13.880;2023-07-31T00:46:30;17.40;99.90
26745;DHT22;14342;50.960;13.880;2023-07-31T00:47:31;17.40;99.90
26745;DHT22;14342;50.960;13.880;2023-07-31T00:48:33;17.40;99.90
26745;DHT22;14342;50.960;13.880;2023-07-31T00:49:34;17.40;99.90
26745;DHT22;14342;50.960;13.880;2023-07-31T00:50:35;17.30;99.90
26745;DHT22;14342;50.960;13.880;2023-07-31T00:51:36;17.40;99.90
26745;DHT22;14342;50.960;13.880;2023-07-31T00:52:38;17.40;99.90
26745;DHT22;14342;50.960;13.880;2023-07-31T00:53:38;17.50;99.90
26745;DHT22;14342;50.960;13.880;2023-07-31T00:54:41;17.50;99.90
26745;DHT22;14342;50.960;13.880;2023-07-31T00:55:41;17.50;99.90
26745;DHT22;14342;50.960;13.880;2023-07-31T00:56:43;17.50;99.90
26745;DHT22;14342;50.960;13.880;2023-07-31T00:57:47;17.50;99.90
26745;DHT22;14342;50.960;13.880;2023-07-31T00:58:48;17.40;99.90
26745;DHT22;14342;50.960;13.880;2023-07-31T00:59:50;17.50;99.90
26745;DHT22;14342;50.960;13.880;2023-07-31T01:00:50;17.50;99.90
26745;DHT22;14342;50.960;13.880;2023-07-31T01:01:52;17.60;99.90
26745;DHT22;14342;50.960;13.880;2023-07-31T01:02:53;17.60;99.90
26745;DHT22;14342;50.960;13.880;2023-07-31T01:03:53;17.60;99.90
26745;DHT22;14342;50.960;13.880;2023-07-31T01:04:55;17.70;99.90
26745;DHT22;14342;50.960;13.880;2023-07-31T01:05:59;17.70;99.90
26745;DHT22;14342;50.960;13.880;2023-07-31T01:07:06;17.80;99.90
26745;DHT22;14342;50.960;13.880;2023-07-31T01:08:12;17.80;99.90
26745;DHT22;14342;50.960;13.880;2023-07-31T01:09:17;17.90;99.90
26745;DHT22;14342;50.960;13.880;2023-07-31T01:10:21;17.90;99.90
26745;DHT22;14342;50.960;13.880;2023-07-31T01:11:25;17.80;99.90
26745;DHT22;14342;50.960;13.880;2023-07-31T01:12:27;17.80;99.90
26745;DHT22;14342;50.960;13.880;2023-07-31T01:13:31;17.80;99.90
26745;DHT22;14342;50.960;13.880;2023-07-31T01:14:32;17.80;99.90
26745;DHT22;14342;50.960;13.880;2023-07-31T01:15:33;17.90;99.90
26745;DHT22;14342;50.960;13.880;2023-07-31T01:16:35;17.90;99.90
26745;DHT22;14342;50.960;13.880;2023-07-31T01:17:35;17.90;99.90
26745;DHT22;14342;50.960;13.880;2023-07-31T01:18:36;17.90;99.90
26745;DHT22;14342;50.960;13.880;2023-07-31T01:19:37;17.90;99.90
26745;DHT22;14342;50.960;13.880;2023-07-31T01:20:38;17.90;99.90
26745;DHT22;14342;50.960;13.880;2023-07-31T01:21:56;18.00;99.90
26745;DHT22;14342;50.960;13.880;2023-07-31T01:23:08;18.00;99.90
26745;DHT22;14342;50.960;13.880;2023-07-31T01:24:19;18.00;99.90
26745;DHT22;14342;50.960;13.880;2023-07-31T01:25:28;17.90;99.90
26745;DHT22;14342;50.960;13.880;2023-07-31T01:26:33;18.00;99.90
26745;DHT22;14342;50.960;13.880;2023-07-31T01:27:34;17.90;99.90
26745;DHT22;14342;50.960;13.880;2023-07-31T01:28:44;17.90;99.90
26745;DHT22;14342;50.960;13.880;2023-07-31T01:29:48;17.90;99.90
26745;DHT22;14342;50.960;13.880;2023-07-31T01:30:50;17.80;99.90
26745;DHT22;14342;50.960;13.880;2023-07-31T01:31:51;17.80;99.90
26745;DHT22;14342;50.960;13.880;2023-07-31T01:32:54;17.80;99.90
26745;DHT22;14342;50.960;13.880;2023-07-31T01:33:57;17.90;99.90
26745;DHT22;14342;50.960;13.880;2023-07-31T01:35:01;17.90;99.90
26745;DHT22;14342;50.960;13.880;2023-07-31T01:36:01;17.90;99.90
26745;DHT22;14342;50.960;13.880;2023-07-31T01:37:03;18.00;99.90
26745;DHT22;14342;50.960;13.880;2023-07-31T01:38:04;18.00;99.90
26745;DHT22;14342;50.960;13.880;2023-07-31T01:39:06;18.00;99.90
26745;DHT22;14342;50.960;13.880;2023-07-31T01:40:07;18.10;99.90
26745;DHT22;14342;50.960;13.880;2023-07-31T01:41:09;18.10;99.90
26745;DHT22;14342;50.960;13.880;2023-07-31T01:42:11;18.10;99.90
26745;DHT22;14342;50.960;13.880;2023-07-31T01:43:13;18.10;99.90
26745;DHT22;14342;50.960;13.880;2023-07-31T01:44:13;18.20;99.90
26745;DHT22;14342;50.960;13.880;2023-07-31T01:45:15;18.20;99.90
26745;DHT22;14342;50.960;13.880;2023-07-31T01:46:15;18.20;99.90
26745;DHT22;14342;50.960;13.880;2023-07-31T01:47:17;18.20;99.90
26745;DHT22;14342;50.960;13.880;2023-07-31T01:48:17;18.20;99.90
26745;DHT22;14342;50.960;13.880;2023-07-31T01:49:19;18.20;99.90
26745;DHT22;14342;50.960;13.880;2023-07-31T01:50:20;18.30;99.90
26745;DHT22;14342;50.960;13.880;2023-07-31T01:51:21;18.30;99.90
26745;DHT22;14342;50.960;13.880;2023-07-31T01:52:22;18.30;99.90
26745;DHT22;14342;50.960;13.880;2023-07-31T01:53:23;18.20;99.90
26745;DHT22;14342;50.960;13.880;2023-07-31T01:54:24;18.30;99.90
26745;DHT22;14342;50.960;13.880;2023-07-31T01:55:25;18.30;99.90
26745;DHT22;14342;50.960;13.880;2023-07-31T01:56:26;18.30;99.90
26745;DHT22;14342;50.960;13.880;2023-07-31T01:57:29;18.20;99.90
26745;DHT22;14342;50.960;13.880;2023-07-31T01:58:30;18.20;99.90
26745;DHT22;14342;50.960;13.880;2023-07-31T01:59:31;18.20;99.90
26745;DHT22;14342;50.960;13.880;2023-07-31T02:00:32;18.30;99.90
26745;DHT22;14342;50.960;13.880;2023-07-31T02:01:33;18.20;99.90
26745;DHT22;14342;50.960;13.880;2023-07-31T02:02:34;18.30;99.90
26745;DHT22;14342;50.960;13.880;2023-07-31T02:03:36;18.30;99.90
26745;DHT22;14342;50.960;13.880;2023-07-31T02:04:36;18.30;99.90
26745;DHT22;14342;50.960;13.880;2023-07-31T02:05:43;18.30;99.90
26745;DHT22;14342;50.960;13.880;2023-07-31T02:06:45;18.30;99.90
26745;DHT22;14342;50.960;13.880;2023-07-31T02:07:45;18.20;99.90
26745;DHT22;14342;50.960;13.880;2023-07-31T02:08:47;18.20;99.90
26745;DHT22;14342;50.960;13.880;2023-07-31T02:09:47;18.20;99.90
26745;DHT22;14342;50.960;13.880;2023-07-31T02:10:49;18.20;99.90
26745;DHT22;14342;50.960;13.880;2023-07-31T02:11:50;18.30;99.90
26745;DHT22;14342;50.960;13.880;2023-07-31T02:12:53;18.20;99.90
26745;DHT22;14342;50.960;13.880;2023-07-31T02:13:54;18.30;99.90
26745;DHT22;14342;50.960;13.880;2023-07-31T02:14:55;18.30;99.90
26745;DHT22;14342;50.960;13.880;2023-07-31T02:15:56;18.30;99.90
26745;DHT22;14342;50.960;13.880;2023-07-31T02:16:57;18.40;99.90
26745;DHT22;14342;50.960;13.880;2023-07-31T02:17:58;18.40;99.90
26745;DHT22;14342;50.960;13.880;2023-07-31T02:19:00;18.40;99.90
26745;DHT22;14342;50.960;13.880;2023-07-31T02:20:00;18.30;99.90
26745;DHT22;14342;50.960;13.880;2023-07-31T02:21:03;18.30;99.90
26745;DHT22;14342;50.960;13.880;2023-07-31T02:22:03;18.30;99.90
26745;DHT22;14342;50.960;13.880;2023-07-31T02:23:05;18.40;99.90
26745;DHT22;14342;50.960;13.880;2023-07-31T02:24:06;18.40;99.90
26745;DHT22;14342;50.960;13.880;2023-07-31T02:25:08;18.40;99.90
26745;DHT22;14342;50.960;13.880;2023-07-31T02:26:08;18.40;99.90
26745;DHT22;14342;50.960;13.880;2023-07-31T02:27:10;18.40;99.90
26745;DHT22;14342;50.960;13.880;2023-07-31T02:28:12;18.40;99.90
26745;DHT22;14342;50.960;13.880;2023-07-31T02:29:13;18.40;99.90
26745;DHT22;14342;50.960;13.880;2023-07-31T02:30:14;18.30;99.90
26745;DHT22;14342;50.960;13.880;2023-07-31T02:31:15;18.30;99.90
26745;DHT22;14342;50.960;13.880;2023-07-31T02:32:16;18.30;99.90
26745;DHT22;14342;50.960;13.880;2023-07-31T02:33:18;18.30;99.90
26745;DHT22;14342;50.960;13.880;2023-07-31T02:34:18;18.30;99.90
26745;DHT22;14342;50.960;13.880;2023-07-31T02:35:20;18.30;99.90
26745;DHT22;14342;50.960;13.880;2023-07-31T02:36:20;18.40;99.90
26745;DHT22;14342;50.960;13.880;2023-07-31T02:37:22;18.40;99.90
26745;DHT22;14342;50.960;13.880;2023-07-31T02:38:23;18.30;99.90
26745;DHT22;14342;50.960;13.880;2023-07-31T02:39:24;18.30;99.90
26745;DHT22;14342;50.960;13.880;2023-07-31T02:40:25;18.30;99.90
26745;DHT22;14342;50.960;13.880;2023-07-31T02:41:27;18.40;99.90
26745;DHT22;14342;50.960;13.880;2023-07-31T02:42:27;18.40;99.90
26745;DHT22;14342;50.960;13.880;2023-07-31T02:43:30;18.40;99.90
26745;DHT22;14342;50.960;13.880;2023-07-31T02:44:31;18.40;99.90
26745;DHT22;14342;50.960;13.880;2023-07-31T02:45:32;18.40;99.90
26745;DHT22;14342;50.960;13.880;2023-07-31T02:46:33;18.50;99.90
26745;DHT22;14342;50.960;13.880;2023-07-31T02:47:35;18.50;99.90
26745;DHT22;14342;50.960;13.880;2023-07-31T02:48:35;18.50;99.90
26745;DHT22;14342;50.960;13.880;2023-07-31T02:49:37;18.50;99.90
26745;DHT22;14342;50.960;13.880;2023-07-31T02:50:37;18.40;99.90
26745;DHT22;14342;50.960;13.880;2023-07-31T02:51:38;18.40;99.90
26745;DHT22;14342;50.960;13.880;2023-07-31T02:52:40;18.40;99.90
26745;DHT22;14342;50.960;13.880;2023-07-31T02:53:40;18.50;99.90
26745;DHT22;14342;50.960;13.880;2023-07-31T02:54:42;18.50;99.90
26745;DHT22;14342;50.960;13.880;2023-07-31T02:55:42;18.60;99.90
26745;DHT22;14342;50.960;13.880;2023-07-31T02:56:44;18.50;99.90
26745;DHT22;14342;50.960;13.880;2023-07-31T02:57:45;18.60;99.90
26745;DHT22;14342;50.960;13.880;2023-07-31T02:58:48;18.60;99.90
26745;DHT22;14342;50.960;13.880;2023-07-31T02:59:49;18.60;99.90
26745;DHT22;14342;50.960;13.880;2023-07-31T03:00:51;18.70;99.90
26745;DHT22;14342;50.960;13.880;2023-07-31T03:01:51;18.60;99.90
26745;DHT22;14342;50.960;13.880;2023-07-31T03:02:53;18.60;99.90
26745;DHT22;14342;50.960;13.880;2023-07-31T03:03:53;18.60;99.90
26745;DHT22;14342;50.960;13.880;2023-07-31T03:04:55;18.70;99.90
26745;DHT22;14342;50.960;13.880;2023-07-31T03:05:56;18.70;99.90
26745;DHT22;14342;50.960;13.880;2023-07-31T03:06:56;18.60;99.90
26745;DHT22;14342;50.960;13.880;2023-07-31T03:07:58;18.60;99.90
26745;DHT22;14342;50.960;13.880;2023-07-31T03:08:58;18.60;99.90
26745;DHT22;14342;50.960;13.880;2023-07-31T03:10:00;18.60;99.90
26745;DHT22;14342;50.960;13.880;2023-07-31T03:11:01;18.60;99.90
26745;DHT22;14342;50.960;13.880;2023-07-31T03:12:02;18.60;99.90
26745;DHT22;14342;50.960;13.880;2023-07-31T03:13:03;18.50;99.90
26745;DHT22;14342;50.960;13.880;2023-07-31T03:14:06;18.60;99.90
26745;DHT22;14342;50.960;13.880;2023-07-31T03:15:07;18.60;99.90
26745;DHT22;14342;50.960;13.880;2023-07-31T03:16:09;18.50;99.90
26745;DHT22;14342;50.960;13.880;2023-07-31T03:17:10;18.60;99.90
26745;DHT22;14342;50.960;13.880;2023-07-31T03:18:11;18.60;99.90
26745;DHT22;14342;50.960;13.880;2023-07-31T03:19:12;18.70;99.90
26745;DHT22;14342;50.960;13.880;2023-07-31T03:20:13;18.80;99.90
26745;DHT22;14342;50.960;13.880;2023-07-31T03:21:14;18.80;99.90
26745;DHT22;14342;50.960;13.880;2023-07-31T03:22:16;18.70;99.90
26745;DHT22;14342;50.960;13.880;2023-07-31T03:23:16;18.60;99.90
26745;DHT22;14342;50.960;13.880;2023-07-31T03:24:18;18.60;99.90
26745;DHT22;14342;50.960;13.880;2023-07-31T03:25:18;18.60;99.90
26745;DHT22;14342;50.960;13.880;2023-07-31T03:26:19;18.60;99.90
26745;DHT22;14342;50.960;13.880;2023-07-31T03:27:21;18.70;99.90
26745;DHT22;14342;50.960;13.880;2023-07-31T03:28:21;18.80;99.90
26745;DHT22;14342;50.960;13.880;2023-07-31T03:29:24;18.80;99.90
26745;DHT22;14342;50.960;13.880;2023-07-31T03:30:25;18.90;99.90
26745;DHT22;14342;50.960;13.880;2023-07-31T03:31:26;18.90;99.90
26745;DHT22;14342;50.960;13.880;2023-07-31T03:32:27;18.70;99.90
26745;DHT22;14342;50.960;13.880;2023-07-31T03:33:28;18.70;99.90
26745;DHT22;14342;50.960;13.880;2023-07-31T03:34:29;18.70;99.90
26745;DHT22;14342;50.960;13.880;2023-07-31T03:35:32;18.70;99.90
26745;DHT22;14342;50.960;13.880;2023-07-31T03:36:32;18.70;99.90
26745;DHT22;14342;50.960;13.880;2023-07-31T03:37:34;18.50;99.90
26745;DHT22;14342;50.960;13.880;2023-07-31T03:38:35;18.50;99.90
26745;DHT22;14342;50.960;13.880;2023-07-31T03:39:36;18.50;99.90
26745;DHT22;14342;50.960;13.880;2023-07-31T03:40:37;18.50;99.90
26745;DHT22;14342;50.960;13.880;2023-07-31T03:41:38;18.50;99.90
26745;DHT22;14342;50.960;13.880;2023-07-31T03:42:39;18.40;99.90
26745;DHT22;14342;50.960;13.880;2023-07-31T03:43:41;18.50;99.90
26745;DHT22;14342;50.960;13.880;2023-07-31T03:44:43;18.50;99.90
26745;DHT22;14342;50.960;13.880;2023-07-31T03:45:44;18.40;99.90
26745;DHT22;14342;50.960;13.880;2023-07-31T03:46:45;18.50;99.90
26745;DHT22;14342;50.960;13.880;2023-07-31T03:47:46;18.30;99.90
26745;DHT22;14342;50.960;13.880;2023-07-31T03:48:47;18.30;99.90
26745;DHT22;14342;50.960;13.880;2023-07-31T03:49:49;18.20;99.90
26745;DHT22;14342;50.960;13.880;2023-07-31T03:50:49;18.20;99.90
26745;DHT22;14342;50.960;13.880;2023-07-31T03:51:51;18.20;99.90
26745;DHT22;14342;50.960;13.880;2023-07-31T03:52:51;18.30;99.90
26745;DHT22;14342;50.960;13.880;2023-07-31T03:53:53;18.20;99.90
26745;DHT22;14342;50.960;13.880;2023-07-31T03:54:54;18.20;99.90
26745;DHT22;14342;50.960;13.880;2023-07-31T03:55:55;18.20;99.90
26745;DHT22;14342;50.960;13.880;2023-07-31T03:56:56;18.10;99.90
26745;DHT22;14342;50.960;13.880;2023-07-31T03:57:57;18.00;99.90
26745;DHT22;14342;50.960;13.880;2023-07-31T03:58:58;17.80;99.90
26745;DHT22;14342;50.960;13.880;2023-07-31T04:00:01;17.80;99.90
26745;DHT22;14342;50.960;13.880;2023-07-31T04:01:02;17.90;99.90
26745;DHT22;14342;50.960;13.880;2023-07-31T04:02:04;17.80;99.90
26745;DHT22;14342;50.960;13.880;2023-07-31T04:03:04;17.80;99.90
26745;DHT22;14342;50.960;13.880;2023-07-31T04:04:06;17.90;99.90
26745;DHT22;14342;50.960;13.880;2023-07-31T04:05:07;17.90;99.90
26745;DHT22;14342;50.960;13.880;2023-07-31T04:06:08;17.80;99.90
26745;DHT22;14342;50.960;13.880;2023-07-31T04:07:09;17.80;99.90
26745;DHT22;14342;50.960;13.880;2023-07-31T04:08:10;17.80;99.90
26745;DHT22;14342;50.960;13.880;2023-07-31T04:09:11;17.90;99.90
26745;DHT22;14342;50.960;13.880;2023-07-31T04:10:13;18.00;99.90
26745;DHT22;14342;50.960;13.880;2023-07-31T04:11:13;17.90;99.90
26745;DHT22;14342;50.960;13.880;2023-07-31T04:12:15;17.90;99.90
26745;DHT22;14342;50.960;13.880;2023-07-31T04:13:15;17.90;99.90
26745;DHT22;14342;50.960;13.880;2023-07-31T04:14:17;17.80;99.90
26745;DHT22;14342;50.960;13.880;2023-07-31T04:15:19;17.80;99.90
26745;DHT22;14342;50.960;13.880;2023-07-31T04:16:21;17.80;99.90
26745;DHT22;14342;50.960;13.880;2023-07-31T04:17:21;17.80;99.90
26745;DHT22;14342;50.960;13.880;2023-07-31T04:18:24;17.90;99.90
26745;DHT22;14342;50.960;13.880;2023-07-31T04:19:24;17.60;99.90
26745;DHT22;14342;50.960;13.880;2023-07-31T04:20:26;17.60;99.90
26745;DHT22;14342;50.960;13.880;2023-07-31T04:21:27;17.70;99.90
26745;DHT22;14342;50.960;13.880;2023-07-31T04:22:28;17.70;99.90
26745;DHT22;14342;50.960;13.880;2023-07-31T04:23:29;17.60;99.90
26745;DHT22;14342;50.960;13.880;2023-07-31T04:24:30;17.50;99.90
26745;DHT22;14342;50.960;13.880;2023-07-31T04:25:31;17.50;99.90
26745;DHT22;14342;50.960;13.880;2023-07-31T04:26:35;17.50;99.90
26745;DHT22;14342;50.960;13.880;2023-07-31T04:27:35;17.50;99.90
26745;DHT22;14342;50.960;13.880;2023-07-31T04:28:37;17.50;99.90
26745;DHT22;14342;50.960;13.880;2023-07-31T04:29:38;17.50;99.90
26745;DHT22;14342;50.960;13.880;2023-07-31T04:30:41;17.50;99.90
26745;DHT22;14342;50.960;13.880;2023-07-31T04:31:42;17.50;99.90
26745;DHT22;14342;50.960;13.880;2023-07-31T04:32:43;17.40;99.90
26745;DHT22;14342;50.960;13.880;2023-07-31T04:33:44;17.70;99.90
26745;DHT22;14342;50.960;13.880;2023-07-31T04:34:45;17.40;99.90
26745;DHT22;14342;50.960;13.880;2023-07-31T04:35:50;17.30;99.90
26745;DHT22;14342;50.960;13.880;2023-07-31T04:36:52;17.30;99.90
26745;DHT22;14342;50.960;13.880;2023-07-31T04:37:53;17.40;99.90
26745;DHT22;14342;50.960;13.880;2023-07-31T04:38:54;17.30;99.90
26745;DHT22;14342;50.960;13.880;2023-07-31T04:39:56;17.30;99.90
26745;DHT22;14342;50.960;13.880;2023-07-31T04:40:57;17.20;99.90
26745;DHT22;14342;50.960;13.880;2023-07-31T04:41:58;17.20;99.90
26745;DHT22;14342;50.960;13.880;2023-07-31T04:43:00;17.20;99.90
26745;DHT22;14342;50.960;13.880;2023-07-31T04:44:01;17.20;99.90
26745;DHT22;14342;50.960;13.880;2023-07-31T04:45:04;17.20;99.90
26745;DHT22;14342;50.960;13.880;2023-07-31T04:46:06;17.20;99.90
26745;DHT22;14342;50.960;13.880;2023-07-31T04:47:08;17.30;99.90
26745;DHT22;14342;50.960;13.880;2023-07-31T04:48:09;17.30;99.90
26745;DHT22;14342;50.960;13.880;2023-07-31T04:49:11;17.30;99.90
26745;DHT22;14342;50.960;13.880;2023-07-31T04:50:12;17.40;99.90
26745;DHT22;14342;50.960;13.880;2023-07-31T04:51:13;17.40;99.90
26745;DHT22;14342;50.960;13.880;2023-07-31T04:52:14;17.40;99.90
26745;DHT22;14342;50.960;13.880;2023-07-31T04:53:15;17.50;99.90
26745;DHT22;14342;50.960;13.880;2023-07-31T04:54:16;17.60;99.90
26745;DHT22;14342;50.960;13.880;2023-07-31T04:55:17;17.50;99.90
26745;DHT22;14342;50.960;13.880;2023-07-31T04:56:18;17.50;99.90
26745;DHT22;14342;50.960;13.880;2023-07-31T04:57:20;17.50;99.90
26745;DHT22;14342;50.960;13.880;2023-07-31T04:58:20;17.60;99.90
26745;DHT22;14342;50.960;13.880;2023-07-31T04:59:22;17.70;99.90
26745;DHT22;14342;50.960;13.880;2023-07-31T05:00:22;17.60;99.90
26745;DHT22;14342;50.960;13.880;2023-07-31T05:01:26;17.60;99.90
26745;DHT22;14342;50.960;13.880;2023-07-31T05:02:26;17.60;99.90
26745;DHT22;14342;50.960;13.880;2023-07-31T05:03:28;17.60;99.90
26745;DHT22;14342;50.960;13.880;2023-07-31T05:04:28;17.70;99.90
26745;DHT22;14342;50.960;13.880;2023-07-31T05:05:30;17.70;99.90
26745;DHT22;14342;50.960;13.880;2023-07-31T05:06:31;17.80;99.90
26745;DHT22;14342;50.960;13.880;2023-07-31T05:07:32;17.70;99.90
26745;DHT22;14342;50.960;13.880;2023-07-31T05:08:33;17.70;99.90
26745;DHT22;14342;50.960;13.880;2023-07-31T05:09:34;17.80;99.90
26745;DHT22;14342;50.960;13.880;2023-07-31T05:10:35;17.80;99.90
26745;DHT22;14342;50.960;13.880;2023-07-31T05:11:36;17.90;99.90
26745;DHT22;14342;50.960;13.880;2023-07-31T05:12:37;17.80;99.90
26745;DHT22;14342;50.960;13.880;2023-07-31T05:13:38;17.70;99.90
26745;DHT22;14342;50.960;13.880;2023-07-31T05:14:39;17.80;99.90
26745;DHT22;14342;50.960;13.880;2023-07-31T05:15:40;17.70;99.90
26745;DHT22;14342;50.960;13.880;2023-07-31T05:16:43;17.80;99.90
26745;DHT22;14342;50.960;13.880;2023-07-31T05:17:44;17.80;99.90
26745;DHT22;14342;50.960;13.880;2023-07-31T05:18:46;17.80;99.90
26745;DHT22;14342;50.960;13.880;2023-07-31T05:19:46;17.90;99.90
26745;DHT22;14342;50.960;13.880;2023-07-31T05:20:48;17.80;99.90
26745;DHT22;14342;50.960;13.880;2023-07-31T05:21:48;17.80;99.90
26745;DHT22;14342;50.960;13.880;2023-07-31T05:22:50;17.90;99.90
26745;DHT22;14342;50.960;13.880;2023-07-31T05:23:51;17.90;99.90
26745;DHT22;14342;50.960;13.880;2023-07-31T05:24:52;17.90;99.90
26745;DHT22;14342;50.960;13.880;2023-07-31T05:25:54;17.80;99.90
26745;DHT22;14342;50.960;13.880;2023-07-31T05:26:56;17.90;99.90
26745;DHT22;14342;50.960;13.880;2023-07-31T05:27:56;17.90;99.90
26745;DHT22;14342;50.960;13.880;2023-07-31T05:28:58;18.00;99.90
26745;DHT22;14342;50.960;13.880;2023-07-31T05:29:58;17.90;99.90
26745;DHT22;14342;50.960;13.880;2023-07-31T05:31:00;17.90;99.90
26745;DHT22;14342;50.960;13.880;2023-07-31T05:32:02;17.90;99.90
26745;DHT22;14342;50.960;13.880;2023-07-31T05:33:04;17.80;99.90
26745;DHT22;14342;50.960;13.880;2023-07-31T05:34:05;17.80;99.90
26745;DHT22;14342;50.960;13.880;2023-07-31T05:35:06;17.90;99.90
26745;DHT22;14342;50.960;13.880;2023-07-31T05:36:07;17.80;99.90
26745;DHT22;14342;50.960;13.880;2023-07-31T05:37:09;17.80;99.90
26745;DHT22;14342;50.960;13.880;2023-07-31T05:38:10;17.80;99.90
26745;DHT22;14342;50.960;13.880;2023-07-31T05:39:12;17.90;99.90
26745;DHT22;14342;50.960;13.880;2023-07-31T05:40:12;18.00;99.90
26745;DHT22;14342;50.960;13.880;2023-07-31T05:41:14;18.00;99.90
26745;DHT22;14342;50.960;13.880;2023-07-31T05:42:15;18.00;99.90
26745;DHT22;14342;50.960;13.880;2023-07-31T05:43:16;18.00;99.90
26745;DHT22;14342;50.960;13.880;2023-07-31T05:44:17;18.00;99.90
26745;DHT22;14342;50.960;13.880;2023-07-31T05:45:18;18.00;99.90
26745;DHT22;14342;50.960;13.880;2023-07-31T05:46:19;18.00;99.90
26745;DHT22;14342;50.960;13.880;2023-07-31T05:47:22;18.00;99.90
26745;DHT22;14342;50.960;13.880;2023-07-31T05:48:23;18.00;99.90
26745;DHT22;14342;50.960;13.880;2023-07-31T05:49:24;18.00;99.90
26745;DHT22;14342;50.960;13.880;2023-07-31T05:50:25;18.00;99.90
26745;DHT22;14342;50.960;13.880;2023-07-31T05:51:26;18.00;99.90
26745;DHT22;14342;50.960;13.880;2023-07-31T05:52:27;18.00;99.90
26745;DHT22;14342;50.960;13.880;2023-07-31T05:53:30;17.90;99.90
26745;DHT22;14342;50.960;13.880;2023-07-31T05:54:31;17.90;99.90
26745;DHT22;14342;50.960;13.880;2023-07-31T05:55:33;17.90;99.90
26745;DHT22;14342;50.960;13.880;2023-07-31T05:56:33;18.00;99.90
26745;DHT22;14342;50.960;13.880;2023-07-31T05:57:35;18.00;99.90
26745;DHT22;14342;50.960;13.880;2023-07-31T05:58:36;18.00;99.90
26745;DHT22;14342;50.960;13.880;2023-07-31T05:59:38;18.00;99.90
26745;DHT22;14342;50.960;13.880;2023-07-31T06:00:38;18.00;99.90
26745;DHT22;14342;50.960;13.880;2023-07-31T06:01:41;18.10;99.90
26745;DHT22;14342;50.960;13.880;2023-07-31T06:02:43;18.10;99.90
26745;DHT22;14342;50.960;13.880;2023-07-31T06:03:43;18.10;99.90
26745;DHT22;14342;50.960;13.880;2023-07-31T06:04:45;18.20;99.90
26745;DHT22;14342;50.960;13.880;2023-07-31T06:05:46;18.20;99.90
26745;DHT22;14342;50.960;13.880;2023-07-31T06:06:47;18.20;99.90
26745;DHT22;14342;50.960;13.880;2023-07-31T06:07:48;18.30;99.90
26745;DHT22;14342;50.960;13.880;2023-07-31T06:08:49;18.20;99.90
26745;DHT22;14342;50.960;13.880;2023-07-31T06:09:50;18.10;99.90
26745;DHT22;14342;50.960;13.880;2023-07-31T06:10:52;18.20;99.90
26745;DHT22;14342;50.960;13.880;2023-07-31T06:11:52;18.20;99.90
26745;DHT22;14342;50.960;13.880;2023-07-31T06:12:54;18.20;99.90
26745;DHT22;14342;50.960;13.880;2023-07-31T06:13:55;18.20;99.90
26745;DHT22;14342;50.960;13.880;2023-07-31T06:14:56;18.30;99.90
26745;DHT22;14342;50.960;13.880;2023-07-31T06:15:57;18.30;99.90
26745;DHT22;14342;50.960;13.880;2023-07-31T06:16:59;18.50;99.90
26745;DHT22;14342;50.960;13.880;2023-07-31T06:18:01;18.30;99.90
26745;DHT22;14342;50.960;13.880;2023-07-31T06:19:03;18.20;99.90
26745;DHT22;14342;50.960;13.880;2023-07-31T06:20:05;18.30;99.90
26745;DHT22;14342;50.960;13.880;2023-07-31T06:21:07;18.40;99.90
26745;DHT22;14342;50.960;13.880;2023-07-31T06:22:08;18.40;99.90